sensor_id;sensor_type;location;lat;lon;timestamp;temperature;humidity
42339;DHT22;27993;45.392;10.918;2022-12-18T00:00:25;4.90;99.90
42339;DHT22;27993;45.392;10.918;2022-12-18T00:02:56;5.00;99.90
42339;DHT22;27993;45.392;10.918;2022-12-18T00:05:27;5.00;99.90
42339;DHT22;27993;45.392;10.918;2022-12-18T00:07:57;5.00;99.90
42339;DHT22;27993;45.392;10.918;2022-12-18T00:10:28;5.00;99.90
42339;DHT22;27993;45.392;10.918;2022-12-18T00:12:59;5.00;99.90
42339;DHT22;27993;45.392;10.918;2022-12-18T00:15:29;4.90;99.90
42339;DHT22;27993;45.392;10.918;2022-12-18T00:18:00;5.00;99.90
42339;DHT22;27993;45.392;10.918;2022-12-18T00:20:36;5.10;99.90
42339;DHT22;27993;45.392;10.918;2022-12-18T00:23:07;5.00;99.90
42339;DHT22;27993;45.392;10.918;2022-12-18T00:25:38;4.90;99.90
42339;DHT22;27993;45.392;10.918;2022-12-18T00:28:08;5.00;99.90
42339;DHT22;27993;45.392;10.918;2022-12-18T00:30:39;4.90;99.90
42339;DHT22;27993;45.392;10.918;2022-12-18T00:33:10;5.00;99.90
42339;DHT22;27993;45.392;10.918;2022-12-18T00:35:40;5.00;99.90
42339;DHT22;27993;45.392;10.918;2022-12-18T00:38:11;5.10;99.90
42339;DHT22;27993;45.392;10.918;2022-12-18T00:40:42;5.10;99.90
42339;DHT22;27993;45.392;10.918;2022-12-18T00:43:12;5.20;99.90
42339;DHT22;27993;45.392;10.918;2022-12-18T00:45:43;5.30;99.90
42339;DHT22;27993;45.392;10.918;2022-12-18T00:48:13;5.30;99.90
42339;DHT22;27993;45.392;10.918;2022-12-18T00:50:44;5.20;99.90
42339;DHT22;27993;45.392;10.918;2022-12-18T00:53:15;5.20;99.90
42339;DHT22;27993;45.392;10.918;2022-12-18T00:55:46;5.20;99.90
42339;DHT22;27993;45.392;10.918;2022-12-18T00:58:17;5.10;99.90
42339;DHT22;27993;45.392;10.918;2022-12-18T01:00:48;4.90;99.90
42339;DHT22;27993;45.392;10.918;2022-12-18T01:03:19;5.00;99.90
42339;DHT22;27993;45.392;10.918;2022-12-18T01:05:49;4.90;99.90
42339;DHT22;27993;45.392;10.918;2022-12-18T01:08:20;4.80;99.90
42339;DHT22;27993;45.392;10.918;2022-12-18T01:10:51;4.90;99.90
42339;DHT22;27993;45.392;10.918;2022-12-18T01:13:21;4.80;99.90
42339;DHT22;27993;45.392;10.918;2022-12-18T01:15:52;4.80;99.90
42339;DHT22;27993;45.392;10.918;2022-12-18T01:18:22;4.80;99.90
42339;DHT22;27993;45.392;10.918;2022-12-18T01:20:53;4.80;99.90
42339;DHT22;27993;45.392;10.918;2022-12-18T01:23:27;4.90;99.90
42339;DHT22;27993;45.392;10.918;2022-12-18T01:25:57;4.90;99.90
42339;DHT22;27993;45.392;10.918;2022-12-18T01:28:28;5.00;99.90
42339;DHT22;27993;45.392;10.918;2022-12-18T01:31:13;5.00;99.90
42339;DHT22;27993;45.392;10.918;2022-12-18T01:33:44;4.90;99.90
42339;DHT22;27993;45.392;10.918;2022-12-18T01:36:18;5.00;99.90
42339;DHT22;27993;45.392;10.918;2022-12-18T01:38:50;4.90;99.90
42339;DHT22;27993;45.392;10.918;2022-12-18T01:41:24;5.00;99.90
42339;DHT22;27993;45.392;10.918;2022-12-18T01:43:57;5.10;99.90
42339;DHT22;27993;45.392;10.918;2022-12-18T01:46:28;5.20;99.90
42339;DHT22;27993;45.392;10.918;2022-12-18T01:49:00;5.20;99.90
42339;DHT22;27993;45.392;10.918;2022-12-18T01:51:31;5.20;99.90
42339;DHT22;27993;45.392;10.918;2022-12-18T01:54:02;5.30;99.90
42339;DHT22;27993;45.392;10.918;2022-12-18T01:56:33;5.40;99.90
42339;DHT22;27993;45.392;10.918;2022-12-18T01:59:06;5.40;99.90
42339;DHT22;27993;45.392;10.918;2022-12-18T02:01:38;5.50;99.90
42339;DHT22;27993;45.392;10.918;2022-12-18T02:04:35;5.50;99.90
42339;DHT22;27993;45.392;10.918;2022-12-18T02:07:28;5.50;99.90
42339;DHT22;27993;45.392;10.918;2022-12-18T02:13:03;5.70;99.90
42339;DHT22;27993;45.392;10.918;2022-12-18T02:15:44;5.70;99.90
42339;DHT22;27993;45.392;10.918;2022-12-18T02:18:24;5.70;99.90
42339;DHT22;27993;45.392;10.918;2022-12-18T02:26:47;5.80;99.90
42339;DHT22;27993;45.392;10.918;2022-12-18T02:29:50;5.90;99.90
42339;DHT22;27993;45.392;10.918;2022-12-18T02:32:25;6.00;99.90
42339;DHT22;27993;45.392;10.918;2022-12-18T02:34:58;6.00;99.90
42339;DHT22;27993;45.392;10.918;2022-12-18T02:37:30;6.00;99.90
42339;DHT22;27993;45.392;10.918;2022-12-18T02:40:03;6.10;99.90
42339;DHT22;27993;45.392;10.918;2022-12-18T02:42:34;6.10;99.90
42339;DHT22;27993;45.392;10.918;2022-12-18T02:45:05;6.10;99.90
42339;DHT22;27993;45.392;10.918;2022-12-18T02:47:39;6.00;99.90
42339;DHT22;27993;45.392;10.918;2022-12-18T02:50:23;6.00;99.90
42339;DHT22;27993;45.392;10.918;2022-12-18T02:53:32;6.10;99.90
42339;DHT22;27993;45.392;10.918;2022-12-18T02:56:19;6.10;99.90
42339;DHT22;27993;45.392;10.918;2022-12-18T03:04:41;6.10;99.90
42339;DHT22;27993;45.392;10.918;2022-12-18T03:07:21;6.10;99.90
42339;DHT22;27993;45.392;10.918;2022-12-18T03:09:55;6.10;99.90
42339;DHT22;27993;45.392;10.918;2022-12-18T03:12:35;6.10;99.90
42339;DHT22;27993;45.392;10.918;2022-12-18T03:15:14;6.10;99.90
42339;DHT22;27993;45.392;10.918;2022-12-18T03:17:56;6.10;99.90
42339;DHT22;27993;45.392;10.918;2022-12-18T03:20:29;6.10;99.90
42339;DHT22;27993;45.392;10.918;2022-12-18T03:23:09;6.00;99.90
42339;DHT22;27993;45.392;10.918;2022-12-18T03:25:43;6.00;99.90
42339;DHT22;27993;45.392;10.918;2022-12-18T03:28:20;6.10;99.90
42339;DHT22;27993;45.392;10.918;2022-12-18T03:30:55;6.10;99.90
42339;DHT22;27993;45.392;10.918;2022-12-18T03:33:44;6.10;99.90
42339;DHT22;27993;45.392;10.918;2022-12-18T03:36:17;6.10;99.90
42339;DHT22;27993;45.392;10.918;2022-12-18T03:38:47;6.00;99.90
42339;DHT22;27993;45.392;10.918;2022-12-18T03:41:19;6.00;99.90
42339;DHT22;27993;45.392;10.918;2022-12-18T03:46:58;5.90;99.90
42339;DHT22;27993;45.392;10.918;2022-12-18T03:49:40;5.90;99.90
42339;DHT22;27993;45.392;10.918;2022-12-18T03:52:26;5.90;99.90
42339;DHT22;27993;45.392;10.918;2022-12-18T03:54:59;5.90;99.90
42339;DHT22;27993;45.392;10.918;2022-12-18T03:57:32;5.80;99.90
42339;DHT22;27993;45.392;10.918;2022-12-18T04:00:07;5.80;99.90
42339;DHT22;27993;45.392;10.918;2022-12-18T04:02:43;5.90;99.90
42339;DHT22;27993;45.392;10.918;2022-12-18T04:05:15;5.90;99.90
42339;DHT22;27993;45.392;10.918;2022-12-18T04:07:49;6.00;99.90
42339;DHT22;27993;45.392;10.918;2022-12-18T04:10:20;5.90;99.90
42339;DHT22;27993;45.392;10.918;2022-12-18T04:12:50;5.90;99.90
42339;DHT22;27993;45.392;10.918;2022-12-18T04:15:21;6.00;99.90
42339;DHT22;27993;45.392;10.918;2022-12-18T04:17:52;6.00;99.90
42339;DHT22;27993;45.392;10.918;2022-12-18T04:20:22;6.00;99.90
42339;DHT22;27993;45.392;10.918;2022-12-18T04:22:53;5.90;99.90
42339;DHT22;27993;45.392;10.918;2022-12-18T04:25:24;5.80;99.90
42339;DHT22;27993;45.392;10.918;2022-12-18T04:27:54;5.90;99.90
42339;DHT22;27993;45.392;10.918;2022-12-18T04:30:25;5.90;99.90
42339;DHT22;27993;45.392;10.918;2022-12-18T04:32:55;5.80;99.90
42339;DHT22;27993;45.392;10.918;2022-12-18T04:35:26;5.70;99.90
42339;DHT22;27993;45.392;10.918;2022-12-18T04:37:57;5.70;99.90
42339;DHT22;27993;45.392;10.918;2022-12-18T04:40:27;5.70;99.90
42339;DHT22;27993;45.392;10.918;2022-12-18T04:42:58;5.70;99.90
42339;DHT22;27993;45.392;10.918;2022-12-18T04:45:30;5.70;99.90
42339;DHT22;27993;45.392;10.918;2022-12-18T04:48:02;5.70;99.90
42339;DHT22;27993;45.392;10.918;2022-12-18T04:50:33;5.70;99.90
42339;DHT22;27993;45.392;10.918;2022-12-18T04:53:03;5.60;99.90
42339;DHT22;27993;45.392;10.918;2022-12-18T04:55:34;5.70;99.90
42339;DHT22;27993;45.392;10.918;2022-12-18T04:58:05;5.60;99.90
42339;DHT22;27993;45.392;10.918;2022-12-18T05:00:35;5.70;99.90
42339;DHT22;27993;45.392;10.918;2022-12-18T05:03:06;5.60;99.90
42339;DHT22;27993;45.392;10.918;2022-12-18T05:05:37;5.70;99.90
42339;DHT22;27993;45.392;10.918;2022-12-18T05:08:07;5.70;99.90
42339;DHT22;27993;45.392;10.918;2022-12-18T05:10:38;5.70;99.90
42339;DHT22;27993;45.392;10.918;2022-12-18T05:13:08;5.70;99.90
42339;DHT22;27993;45.392;10.918;2022-12-18T05:15:39;5.60;99.90
42339;DHT22;27993;45.392;10.918;2022-12-18T05:18:10;5.60;99.90
42339;DHT22;27993;45.392;10.918;2022-12-18T05:20:41;5.50;99.90
42339;DHT22;27993;45.392;10.918;2022-12-18T05:23:11;5.40;99.90
42339;DHT22;27993;45.392;10.918;2022-12-18T05:25:42;5.40;99.90
42339;DHT22;27993;45.392;10.918;2022-12-18T05:28:12;5.30;99.90
42339;DHT22;27993;45.392;10.918;2022-12-18T05:30:50;5.30;99.90
42339;DHT22;27993;45.392;10.918;2022-12-18T05:33:24;5.30;99.90
42339;DHT22;27993;45.392;10.918;2022-12-18T05:35:57;5.40;99.90
42339;DHT22;27993;45.392;10.918;2022-12-18T05:38:28;5.50;99.90
42339;DHT22;27993;45.392;10.918;2022-12-18T05:40:59;5.50;99.90
42339;DHT22;27993;45.392;10.918;2022-12-18T05:43:30;5.60;99.90
42339;DHT22;27993;45.392;10.918;2022-12-18T05:46:05;5.60;99.90
42339;DHT22;27993;45.392;10.918;2022-12-18T05:48:36;5.60;99.90
42339;DHT22;27993;45.392;10.918;2022-12-18T05:51:09;5.70;99.90
42339;DHT22;27993;45.392;10.918;2022-12-18T05:53:40;5.70;99.90
42339;DHT22;27993;45.392;10.918;2022-12-18T05:56:14;5.70;99.90
42339;DHT22;27993;45.392;10.918;2022-12-18T05:58:46;5.70;99.90
42339;DHT22;27993;45.392;10.918;2022-12-18T06:01:19;5.70;99.90
42339;DHT22;27993;45.392;10.918;2022-12-18T06:03:50;5.80;99.90
42339;DHT22;27993;45.392;10.918;2022-12-18T06:06:26;5.80;99.90
42339;DHT22;27993;45.392;10.918;2022-12-18T06:08:57;5.70;99.90
42339;DHT22;27993;45.392;10.918;2022-12-18T06:11:28;5.70;99.90
42339;DHT22;27993;45.392;10.918;2022-12-18T06:13:59;5.70;99.90
42339;DHT22;27993;45.392;10.918;2022-12-18T06:16:30;5.80;99.90
42339;DHT22;27993;45.392;10.918;2022-12-18T06:19:03;5.90;99.90
42339;DHT22;27993;45.392;10.918;2022-12-18T06:21:34;5.90;99.90
42339;DHT22;27993;45.392;10.918;2022-12-18T06:24:05;5.90;99.90
42339;DHT22;27993;45.392;10.918;2022-12-18T06:26:39;5.80;99.90
42339;DHT22;27993;45.392;10.918;2022-12-18T06:29:09;5.80;99.90
42339;DHT22;27993;45.392;10.918;2022-12-18T06:31:40;5.80;99.90
42339;DHT22;27993;45.392;10.918;2022-12-18T06:34:11;5.90;99.90
42339;DHT22;27993;45.392;10.918;2022-12-18T06:36:42;5.80;99.90
42339;DHT22;27993;45.392;10.918;2022-12-18T06:39:12;5.80;99.90
42339;DHT22;27993;45.392;10.918;2022-12-18T06:41:43;5.80;99.90
42339;DHT22;27993;45.392;10.918;2022-12-18T06:44:13;5.70;99.90
42339;DHT22;27993;45.392;10.918;2022-12-18T06:46:44;5.70;99.90
42339;DHT22;27993;45.392;10.918;2022-12-18T06:49:15;5.60;99.90
42339;DHT22;27993;45.392;10.918;2022-12-18T06:51:46;5.60;99.90
42339;DHT22;27993;45.392;10.918;2022-12-18T06:54:17;5.70;99.90
42339;DHT22;27993;45.392;10.918;2022-12-18T06:56:47;5.70;99.90
42339;DHT22;27993;45.392;10.918;2022-12-18T06:59:18;5.60;99.90
42339;DHT22;27993;45.392;10.918;2022-12-18T07:01:51;5.60;99.90
42339;DHT22;27993;45.392;10.918;2022-12-18T07:04:26;5.60;99.90
42339;DHT22;27993;45.392;10.918;2022-12-18T07:06:57;5.60;99.90
42339;DHT22;27993;45.392;10.918;2022-12-18T07:09:28;5.70;99.90
42339;DHT22;27993;45.392;10.918;2022-12-18T07:11:58;5.60;99.90
42339;DHT22;27993;45.392;10.918;2022-12-18T07:14:29;5.70;99.90
42339;DHT22;27993;45.392;10.918;2022-12-18T07:17:00;5.70;99.90
42339;DHT22;27993;45.392;10.918;2022-12-18T07:19:30;5.80;99.90
42339;DHT22;27993;45.392;10.918;2022-12-18T07:22:01;5.80;99.90
42339;DHT22;27993;45.392;10.918;2022-12-18T07:24:33;5.80;99.90
42339;DHT22;27993;45.392;10.918;2022-12-18T07:27:04;5.80;99.90
42339;DHT22;27993;45.392;10.918;2022-12-18T07:29:34;5.90;99.90
42339;DHT22;27993;45.392;10.918;2022-12-18T07:32:05;5.80;99.90
42339;DHT22;27993;45.392;10.918;2022-12-18T07:34:37;5.80;99.90
42339;DHT22;27993;45.392;10.918;2022-12-18T07:37:08;5.80;99.90
42339;DHT22;27993;45.392;10.918;2022-12-18T07:39:38;5.80;99.90
42339;DHT22;27993;45.392;10.918;2022-12-18T07:42:09;5.90;99.90
42339;DHT22;27993;45.392;10.918;2022-12-18T07:44:59;5.90;99.90
42339;DHT22;27993;45.392;10.918;2022-12-18T07:47:36;5.90;99.90
42339;DHT22;27993;45.392;10.918;2022-12-18T07:50:07;5.90;99.90
42339;DHT22;27993;45.392;10.918;2022-12-18T07:52:38;6.00;99.90
42339;DHT22;27993;45.392;10.918;2022-12-18T07:55:09;6.10;99.90
42339;DHT22;27993;45.392;10.918;2022-12-18T07:57:39;6.10;99.90
42339;DHT22;27993;45.392;10.918;2022-12-18T08:00:10;6.20;99.90
42339;DHT22;27993;45.392;10.918;2022-12-18T08:02:41;6.10;99.90
42339;DHT22;27993;45.392;10.918;2022-12-18T08:05:12;6.20;99.90
42339;DHT22;27993;45.392;10.918;2022-12-18T08:07:43;6.30;99.90
42339;DHT22;27993;45.392;10.918;2022-12-18T08:10:14;6.30;99.90
42339;DHT22;27993;45.392;10.918;2022-12-18T08:12:45;6.20;99.90
42339;DHT22;27993;45.392;10.918;2022-12-18T08:15:16;6.30;99.90
42339;DHT22;27993;45.392;10.918;2022-12-18T08:17:46;6.30;99.90
42339;DHT22;27993;45.392;10.918;2022-12-18T08:20:17;6.30;99.90
42339;DHT22;27993;45.392;10.918;2022-12-18T08:22:48;6.30;99.90
42339;DHT22;27993;45.392;10.918;2022-12-18T08:25:19;6.20;99.90
42339;DHT22;27993;45.392;10.918;2022-12-18T08:27:49;6.30;99.90
42339;DHT22;27993;45.392;10.918;2022-12-18T08:30:20;6.40;99.90
42339;DHT22;27993;45.392;10.918;2022-12-18T08:32:51;6.40;99.90
42339;DHT22;27993;45.392;10.918;2022-12-18T08:35:23;6.60;99.90
42339;DHT22;27993;45.392;10.918;2022-12-18T08:37:54;6.60;99.90
42339;DHT22;27993;45.392;10.918;2022-12-18T08:40:25;6.60;99.90
42339;DHT22;27993;45.392;10.918;2022-12-18T08:42:55;6.60;99.90
42339;DHT22;27993;45.392;10.918;2022-12-18T08:45:45;6.70;99.90
42339;DHT22;27993;45.392;10.918;2022-12-18T08:48:15;6.70;99.90
42339;DHT22;27993;45.392;10.918;2022-12-18T08:50:59;6.70;99.90
42339;DHT22;27993;45.392;10.918;2022-12-18T08:53:30;6.80;99.90
42339;DHT22;27993;45.392;10.918;2022-12-18T08:56:00;6.80;99.90
42339;DHT22;27993;45.392;10.918;2022-12-18T08:58:31;6.80;99.90
42339;DHT22;27993;45.392;10.918;2022-12-18T09:01:03;6.80;99.90
42339;DHT22;27993;45.392;10.918;2022-12-18T09:03:34;6.80;99.90
42339;DHT22;27993;45.392;10.918;2022-12-18T09:06:06;6.90;99.90
42339;DHT22;27993;45.392;10.918;2022-12-18T09:08:36;6.90;99.90
42339;DHT22;27993;45.392;10.918;2022-12-18T09:11:18;7.00;99.90
42339;DHT22;27993;45.392;10.918;2022-12-18T09:13:50;7.00;99.90
42339;DHT22;27993;45.392;10.918;2022-12-18T09:16:22;7.00;99.90
42339;DHT22;27993;45.392;10.918;2022-12-18T09:18:54;7.10;99.90
42339;DHT22;27993;45.392;10.918;2022-12-18T09:21:34;7.10;99.90
42339;DHT22;27993;45.392;10.918;2022-12-18T09:24:05;7.20;99.90
42339;DHT22;27993;45.392;10.918;2022-12-18T09:26:36;7.30;99.90
42339;DHT22;27993;45.392;10.918;2022-12-18T09:29:07;7.40;99.90
42339;DHT22;27993;45.392;10.918;2022-12-18T09:31:38;7.60;99.90
42339;DHT22;27993;45.392;10.918;2022-12-18T09:34:09;7.70;99.90
42339;DHT22;27993;45.392;10.918;2022-12-18T09:36:40;7.80;99.90
42339;DHT22;27993;45.392;10.918;2022-12-18T09:39:11;7.90;99.90
42339;DHT22;27993;45.392;10.918;2022-12-18T09:41:53;7.90;99.90
42339;DHT22;27993;45.392;10.918;2022-12-18T09:44:44;7.90;99.90
42339;DHT22;27993;45.392;10.918;2022-12-18T09:47:30;8.00;99.90
42339;DHT22;27993;45.392;10.918;2022-12-18T09:50:12;8.20;99.90
42339;DHT22;27993;45.392;10.918;2022-12-18T09:52:49;8.20;99.90
42339;DHT22;27993;45.392;10.918;2022-12-18T09:55:36;8.20;99.90
42339;DHT22;27993;45.392;10.918;2022-12-18T09:58:43;8.20;99.90
42339;DHT22;27993;45.392;10.918;2022-12-18T10:01:18;8.10;99.90
42339;DHT22;27993;45.392;10.918;2022-12-18T10:03:50;8.20;99.90
42339;DHT22;27993;45.392;10.918;2022-12-18T10:06:42;8.20;99.90
42339;DHT22;27993;45.392;10.918;2022-12-18T10:09:31;8.10;99.90
42339;DHT22;27993;45.392;10.918;2022-12-18T10:12:21;8.20;99.90
42339;DHT22;27993;45.392;10.918;2022-12-18T10:18:06;8.30;99.90
42339;DHT22;27993;45.392;10.918;2022-12-18T10:20:51;8.30;99.90
42339;DHT22;27993;45.392;10.918;2022-12-18T10:23:29;8.20;99.90
42339;DHT22;27993;45.392;10.918;2022-12-18T10:26:07;8.20;99.90
42339;DHT22;27993;45.392;10.918;2022-12-18T10:28:39;8.30;99.90
42339;DHT22;27993;45.392;10.918;2022-12-18T10:31:22;8.20;99.90
42339;DHT22;27993;45.392;10.918;2022-12-18T10:33:54;8.30;99.90
42339;DHT22;27993;45.392;10.918;2022-12-18T10:36:25;8.20;99.90
42339;DHT22;27993;45.392;10.918;2022-12-18T10:39:17;8.20;99.90
42339;DHT22;27993;45.392;10.918;2022-12-18T10:41:52;8.30;99.90
42339;DHT22;27993;45.392;10.918;2022-12-18T10:44:39;8.30;99.90
42339;DHT22;27993;45.392;10.918;2022-12-18T10:47:15;8.30;99.90
42339;DHT22;27993;45.392;10.918;2022-12-18T10:49:52;8.40;99.90
42339;DHT22;27993;45.392;10.918;2022-12-18T10:52:26;8.30;99.90
42339;DHT22;27993;45.392;10.918;2022-12-18T10:54:59;8.40;99.90
42339;DHT22;27993;45.392;10.918;2022-12-18T10:57:38;8.30;99.90
42339;DHT22;27993;45.392;10.918;2022-12-18T11:00:29;8.40;99.90
42339;DHT22;27993;45.392;10.918;2022-12-18T11:03:00;8.40;99.90
42339;DHT22;27993;45.392;10.918;2022-12-18T11:05:32;8.40;99.90
42339;DHT22;27993;45.392;10.918;2022-12-18T11:08:04;8.50;99.90
42339;DHT22;27993;45.392;10.918;2022-12-18T11:10:37;8.60;99.90
42339;DHT22;27993;45.392;10.918;2022-12-18T11:13:16;8.70;99.90
42339;DHT22;27993;45.392;10.918;2022-12-18T11:15:47;8.90;99.90
42339;DHT22;27993;45.392;10.918;2022-12-18T11:18:36;9.40;99.90
42339;DHT22;27993;45.392;10.918;2022-12-18T11:21:12;10.00;99.90
42339;DHT22;27993;45.392;10.918;2022-12-18T11:23:49;10.50;99.90
42339;DHT22;27993;45.392;10.918;2022-12-18T11:26:21;10.70;99.90
42339;DHT22;27993;45.392;10.918;2022-12-18T11:29:16;10.80;99.90
42339;DHT22;27993;45.392;10.918;2022-12-18T11:31:47;10.90;99.90
42339;DHT22;27993;45.392;10.918;2022-12-18T11:34:30;10.90;99.90
42339;DHT22;27993;45.392;10.918;2022-12-18T11:37:03;10.80;99.90
42339;DHT22;27993;45.392;10.918;2022-12-18T11:39:36;10.60;99.90
42339;DHT22;27993;45.392;10.918;2022-12-18T11:42:37;10.40;99.90
42339;DHT22;27993;45.392;10.918;2022-12-18T11:47:49;10.80;99.90
42339;DHT22;27993;45.392;10.918;2022-12-18T11:50:33;11.00;99.90
42339;DHT22;27993;45.392;10.918;2022-12-18T11:53:11;11.20;99.90
42339;DHT22;27993;45.392;10.918;2022-12-18T12:04:10;11.80;99.90
42339;DHT22;27993;45.392;10.918;2022-12-18T12:09:57;11.90;99.90
42339;DHT22;27993;45.392;10.918;2022-12-18T12:29:17;11.20;99.90
42339;DHT22;27993;45.392;10.918;2022-12-18T12:32:11;11.20;99.90
42339;DHT22;27993;45.392;10.918;2022-12-18T12:40:25;10.90;99.90
42339;DHT22;27993;45.392;10.918;2022-12-18T12:43:01;10.90;99.90
42339;DHT22;27993;45.392;10.918;2022-12-18T12:45:48;10.80;99.90
42339;DHT22;27993;45.392;10.918;2022-12-18T12:53:58;11.40;99.90
42339;DHT22;27993;45.392;10.918;2022-12-18T12:57:00;11.30;99.90
42339;DHT22;27993;45.392;10.918;2022-12-18T13:02:42;11.40;99.90
42339;DHT22;27993;45.392;10.918;2022-12-18T13:05:33;11.50;99.90
42339;DHT22;27993;45.392;10.918;2022-12-18T13:08:10;11.20;99.90
42339;DHT22;27993;45.392;10.918;2022-12-18T13:10:42;11.30;99.90
42339;DHT22;27993;45.392;10.918;2022-12-18T13:13:14;11.40;99.90
42339;DHT22;27993;45.392;10.918;2022-12-18T13:15:49;11.70;99.90
42339;DHT22;27993;45.392;10.918;2022-12-18T13:18:33;11.80;99.90
42339;DHT22;27993;45.392;10.918;2022-12-18T13:21:32;11.80;99.90
42339;DHT22;27993;45.392;10.918;2022-12-18T13:24:24;11.70;99.90
42339;DHT22;27993;45.392;10.918;2022-12-18T13:26:56;11.60;99.90
42339;DHT22;27993;45.392;10.918;2022-12-18T13:29:44;11.40;99.90
42339;DHT22;27993;45.392;10.918;2022-12-18T13:32:25;11.50;99.90
42339;DHT22;27993;45.392;10.918;2022-12-18T13:37:51;11.50;99.90
42339;DHT22;27993;45.392;10.918;2022-12-18T13:43:26;11.40;99.90
42339;DHT22;27993;45.392;10.918;2022-12-18T13:48:37;11.30;99.90
42339;DHT22;27993;45.392;10.918;2022-12-18T13:51:10;11.40;99.90
42339;DHT22;27993;45.392;10.918;2022-12-18T13:53:49;11.40;99.90
42339;DHT22;27993;45.392;10.918;2022-12-18T13:56:29;11.40;99.90
42339;DHT22;27993;45.392;10.918;2022-12-18T14:04:29;10.70;99.90
42339;DHT22;27993;45.392;10.918;2022-12-18T14:07:10;10.80;99.90
42339;DHT22;27993;45.392;10.918;2022-12-18T14:09:44;10.80;99.90
42339;DHT22;27993;45.392;10.918;2022-12-18T14:12:22;10.60;99.90
42339;DHT22;27993;45.392;10.918;2022-12-18T14:20:43;10.50;99.90
42339;DHT22;27993;45.392;10.918;2022-12-18T14:23:36;10.20;99.90
42339;DHT22;27993;45.392;10.918;2022-12-18T14:26:26;10.00;99.90
42339;DHT22;27993;45.392;10.918;2022-12-18T14:29:01;9.90;99.90
42339;DHT22;27993;45.392;10.918;2022-12-18T14:32:15;9.90;99.90
42339;DHT22;27993;45.392;10.918;2022-12-18T14:34:50;9.80;99.90
42339;DHT22;27993;45.392;10.918;2022-12-18T14:37:24;9.60;99.90
42339;DHT22;27993;45.392;10.918;2022-12-18T14:39:59;9.50;99.90
42339;DHT22;27993;45.392;10.918;2022-12-18T14:42:30;9.40;99.90
42339;DHT22;27993;45.392;10.918;2022-12-18T14:45:40;9.40;99.90
42339;DHT22;27993;45.392;10.918;2022-12-18T14:48:31;9.40;99.90
42339;DHT22;27993;45.392;10.918;2022-12-18T14:51:49;9.30;99.90
42339;DHT22;27993;45.392;10.918;2022-12-18T14:54:02;9.30;99.90
42339;DHT22;27993;45.392;10.918;2022-12-18T14:56:35;9.20;99.90
42339;DHT22;27993;45.392;10.918;2022-12-18T14:59:15;9.10;99.90
42339;DHT22;27993;45.392;10.918;2022-12-18T15:02:02;9.00;99.90
42339;DHT22;27993;45.392;10.918;2022-12-18T15:04:36;9.00;99.90
42339;DHT22;27993;45.392;10.918;2022-12-18T15:07:23;9.10;99.90
42339;DHT22;27993;45.392;10.918;2022-12-18T15:10:13;9.00;99.90
42339;DHT22;27993;45.392;10.918;2022-12-18T15:23:38;8.90;99.90
42339;DHT22;27993;45.392;10.918;2022-12-18T15:26:17;8.90;99.90
42339;DHT22;27993;45.392;10.918;2022-12-18T15:28:53;8.90;99.90
42339;DHT22;27993;45.392;10.918;2022-12-18T15:31:30;8.80;99.90
42339;DHT22;27993;45.392;10.918;2022-12-18T15:34:10;8.70;99.90
42339;DHT22;27993;45.392;10.918;2022-12-18T15:36:42;8.70;99.90
42339;DHT22;27993;45.392;10.918;2022-12-18T15:39:13;8.60;99.90
42339;DHT22;27993;45.392;10.918;2022-12-18T15:41:44;8.60;99.90
42339;DHT22;27993;45.392;10.918;2022-12-18T15:44:35;8.50;99.90
42339;DHT22;27993;45.392;10.918;2022-12-18T15:47:11;8.40;99.90
42339;DHT22;27993;45.392;10.918;2022-12-18T15:49:42;8.30;99.90
42339;DHT22;27993;45.392;10.918;2022-12-18T15:52:13;8.20;99.90
42339;DHT22;27993;45.392;10.918;2022-12-18T15:54:44;8.20;99.90
42339;DHT22;27993;45.392;10.918;2022-12-18T15:57:33;8.20;99.90
42339;DHT22;27993;45.392;10.918;2022-12-18T16:00:04;8.20;99.90
42339;DHT22;27993;45.392;10.918;2022-12-18T16:02:35;8.10;99.90
42339;DHT22;27993;45.392;10.918;2022-12-18T16:05:14;8.00;99.90
42339;DHT22;27993;45.392;10.918;2022-12-18T16:07:45;7.90;99.90
42339;DHT22;27993;45.392;10.918;2022-12-18T16:10:16;7.90;99.90
42339;DHT22;27993;45.392;10.918;2022-12-18T16:12:47;7.80;99.90
42339;DHT22;27993;45.392;10.918;2022-12-18T16:15:18;7.80;99.90
42339;DHT22;27993;45.392;10.918;2022-12-18T16:17:49;7.70;99.90
42339;DHT22;27993;45.392;10.918;2022-12-18T16:20:21;7.70;99.90
42339;DHT22;27993;45.392;10.918;2022-12-18T16:22:52;7.60;99.90
42339;DHT22;27993;45.392;10.918;2022-12-18T16:25:25;7.60;99.90
42339;DHT22;27993;45.392;10.918;2022-12-18T16:27:56;7.60;99.90
42339;DHT22;27993;45.392;10.918;2022-12-18T16:30:29;7.50;99.90
42339;DHT22;27993;45.392;10.918;2022-12-18T16:33:00;7.50;99.90
42339;DHT22;27993;45.392;10.918;2022-12-18T16:35:31;7.50;99.90
42339;DHT22;27993;45.392;10.918;2022-12-18T16:38:03;7.40;99.90
42339;DHT22;27993;45.392;10.918;2022-12-18T16:40:33;7.40;99.90
42339;DHT22;27993;45.392;10.918;2022-12-18T16:43:24;7.30;99.90
42339;DHT22;27993;45.392;10.918;2022-12-18T16:45:54;7.20;99.90
42339;DHT22;27993;45.392;10.918;2022-12-18T16:48:27;7.20;99.90
42339;DHT22;27993;45.392;10.918;2022-12-18T16:51:03;7.20;99.90
42339;DHT22;27993;45.392;10.918;2022-12-18T16:53:34;7.20;99.90
42339;DHT22;27993;45.392;10.918;2022-12-18T16:56:05;7.00;99.90
42339;DHT22;27993;45.392;10.918;2022-12-18T16:58:36;7.00;99.90
42339;DHT22;27993;45.392;10.918;2022-12-18T17:01:08;7.00;99.90
42339;DHT22;27993;45.392;10.918;2022-12-18T17:03:39;7.00;99.90
42339;DHT22;27993;45.392;10.918;2022-12-18T17:06:09;6.90;99.90
42339;DHT22;27993;45.392;10.918;2022-12-18T17:08:40;6.90;99.90
42339;DHT22;27993;45.392;10.918;2022-12-18T17:11:10;6.90;99.90
42339;DHT22;27993;45.392;10.918;2022-12-18T17:13:41;6.80;99.90
42339;DHT22;27993;45.392;10.918;2022-12-18T17:16:12;6.60;99.90
42339;DHT22;27993;45.392;10.918;2022-12-18T17:18:42;6.60;99.90
42339;DHT22;27993;45.392;10.918;2022-12-18T17:21:14;6.60;99.90
42339;DHT22;27993;45.392;10.918;2022-12-18T17:23:45;6.50;99.90
42339;DHT22;27993;45.392;10.918;2022-12-18T17:26:15;6.50;99.90
42339;DHT22;27993;45.392;10.918;2022-12-18T17:28:46;6.60;99.90
42339;DHT22;27993;45.392;10.918;2022-12-18T17:31:19;6.60;99.90
42339;DHT22;27993;45.392;10.918;2022-12-18T17:33:50;6.50;99.90
42339;DHT22;27993;45.392;10.918;2022-12-18T17:36:22;6.50;99.90
42339;DHT22;27993;45.392;10.918;2022-12-18T17:38:55;6.50;99.90
42339;DHT22;27993;45.392;10.918;2022-12-18T17:41:27;6.50;99.90
42339;DHT22;27993;45.392;10.918;2022-12-18T17:44:01;6.50;99.90
42339;DHT22;27993;45.392;10.918;2022-12-18T17:46:32;6.40;99.90
42339;DHT22;27993;45.392;10.918;2022-12-18T17:49:03;6.30;99.90
42339;DHT22;27993;45.392;10.918;2022-12-18T17:51:34;6.30;99.90
42339;DHT22;27993;45.392;10.918;2022-12-18T17:54:05;6.20;99.90